Time,TemperatureF,DewpointF,PressureIn,WindDirection,WindDirectionDegrees,WindSpeedMPH,WindSpeedGustMPH,Humidity,HourlyPrecipIn,Conditions,Clouds,dailyrainin,SoftwareType,DateUTC
2013-03-12 00:02:00,57.0,48.7,30.04,SE,135,11.0,11.0,74,0.00,,,0.00,meteohub,2013-03-12 04:02:00,
2013-03-12 00:12:00,57.0,49.5,30.03,SE,135,4.0,12.0,76,0.00,,,0.00,meteohub,2013-03-12 04:12:00,
2013-03-12 00:22:00,55.9,49.1,30.04,South,180,3.0,11.0,78,0.00,,,0.00,meteohub,2013-03-12 04:22:00,
2013-03-12 00:32:00,55.9,49.1,30.02,SE,135,6.0,12.0,78,0.00,,,0.00,meteohub,2013-03-12 04:32:00,
2013-03-12 00:42:00,55.9,49.1,30.02,South,180,4.0,13.0,78,0.00,,,0.00,meteohub,2013-03-12 04:42:00,
2013-03-12 00:52:00,55.9,49.1,30.02,South,180,1.0,10.0,78,0.00,,,0.00,meteohub,2013-03-12 04:52:00,
2013-03-12 01:02:00,55.9,49.1,30.01,SE,135,2.0,12.0,78,0.00,,,0.00,meteohub,2013-03-12 05:02:00,
2013-03-12 01:12:00,55.9,49.1,30.01,SSE,157,3.0,12.0,78,0.00,,,0.00,meteohub,2013-03-12 05:12:00,
2013-03-12 01:22:00,57.0,50.2,30.00,SSE,157,5.0,11.0,78,0.00,,,0.00,meteohub,2013-03-12 05:22:00,
2013-03-12 01:32:00,57.0,50.2,30.00,SE,135,4.0,12.0,78,0.00,,,0.00,meteohub,2013-03-12 05:32:00,
2013-03-12 01:42:00,57.0,49.8,30.01,SE,135,4.0,11.0,77,0.00,,,0.00,meteohub,2013-03-12 05:42:00,
2013-03-12 01:52:00,57.0,49.8,30.00,South,180,3.0,11.0,77,0.00,,,0.00,meteohub,2013-03-12 05:52:00,
2013-03-12 02:02:00,57.0,49.8,30.01,South,180,3.0,12.0,77,0.00,,,0.00,meteohub,2013-03-12 06:02:00,
2013-03-12 02:12:00,57.0,49.8,30.01,SSE,157,3.0,13.0,77,0.00,,,0.00,meteohub,2013-03-12 06:12:00,
2013-03-12 02:22:00,57.0,50.2,30.01,SSE,157,4.0,13.0,78,0.00,,,0.00,meteohub,2013-03-12 06:22:00,
2013-03-12 02:32:00,57.0,50.5,30.01,SE,135,4.0,11.0,79,0.00,,,0.00,meteohub,2013-03-12 06:32:00,
2013-03-12 02:42:00,57.0,50.9,30.00,South,180,5.0,10.0,80,0.00,,,0.00,meteohub,2013-03-12 06:42:00,
2013-03-12 02:52:00,57.0,50.9,29.99,SE,135,2.0,12.0,80,0.00,,,0.00,meteohub,2013-03-12 06:52:00,
2013-03-12 03:02:00,57.0,51.3,29.98,SSE,157,5.0,12.0,81,0.00,,,0.00,meteohub,2013-03-12 07:02:00,
2013-03-12 03:12:00,55.9,50.5,29.98,South,180,2.0,11.0,82,0.00,,,0.00,meteohub,2013-03-12 07:12:00,
2013-03-12 03:22:00,55.9,51.3,29.97,SE,135,6.0,11.0,84,0.00,,,0.00,meteohub,2013-03-12 07:22:00,
2013-03-12 03:32:00,55.9,51.4,29.97,South,180,2.0,10.0,85,0.00,,,0.00,meteohub,2013-03-12 07:32:00,
2013-03-12 03:42:00,55.9,51.4,29.97,South,180,3.0,9.0,85,0.00,,,0.00,meteohub,2013-03-12 07:42:00,
2013-03-12 03:52:00,55.9,51.4,29.97,SE,135,2.0,9.0,85,0.00,,,0.00,meteohub,2013-03-12 07:52:00,
2013-03-12 04:02:00,55.9,51.4,29.97,South,180,4.0,10.0,85,0.00,,,0.00,meteohub,2013-03-12 08:02:00,
2013-03-12 04:12:00,55.9,51.4,29.95,South,180,1.0,10.0,85,0.00,,,0.00,meteohub,2013-03-12 08:12:00,
2013-03-12 04:22:00,55.9,51.4,29.95,SE,135,2.0,11.0,85,0.00,,,0.00,meteohub,2013-03-12 08:22:00,
2013-03-12 04:32:00,55.9,51.4,29.95,SSE,157,5.0,11.0,85,0.00,,,0.00,meteohub,2013-03-12 08:32:00,
2013-03-12 04:42:00,55.9,51.8,29.95,South,180,2.0,11.0,86,0.00,,,0.00,meteohub,2013-03-12 08:42:00,
2013-03-12 04:52:00,55.9,51.8,29.95,SSE,157,1.0,11.0,86,0.00,,,0.00,meteohub,2013-03-12 08:52:00,
2013-03-12 05:02:00,55.9,52.2,29.95,South,180,6.0,10.0,87,0.00,,,0.00,meteohub,2013-03-12 09:02:00,
2013-03-12 05:12:00,55.9,52.5,29.94,SE,135,2.0,12.0,88,0.00,,,0.00,meteohub,2013-03-12 09:12:00,
2013-03-12 05:22:00,55.9,53.1,29.94,South,180,4.0,12.0,90,0.00,,,0.00,meteohub,2013-03-12 09:22:00,
2013-03-12 05:32:00,55.0,52.7,29.94,SSE,157,1.0,12.0,92,0.00,,,0.00,meteohub,2013-03-12 09:32:00,
2013-03-12 05:42:00,55.0,53.4,29.93,South,180,1.0,12.0,94,0.00,,,0.00,meteohub,2013-03-12 09:42:00,
2013-03-12 05:52:00,55.0,54.0,29.93,South,180,2.0,7.0,96,0.01,,,0.01,meteohub,2013-03-12 09:52:00,
2013-03-12 06:02:00,55.0,54.0,29.93,South,180,2.0,8.0,96,0.01,,,0.01,meteohub,2013-03-12 10:02:00,
2013-03-12 06:12:00,55.0,54.1,29.92,SE,135,2.0,10.0,97,0.02,,,0.02,meteohub,2013-03-12 10:12:00,
2013-03-12 06:22:00,55.0,54.1,29.92,SE,135,3.0,10.0,97,0.02,,,0.02,meteohub,2013-03-12 10:22:00,
2013-03-12 06:32:00,55.0,54.1,29.92,SE,135,4.0,9.0,97,0.02,,,0.02,meteohub,2013-03-12 10:32:00,
2013-03-12 06:42:00,55.0,54.1,29.92,SE,135,3.0,7.0,97,0.02,,,0.03,meteohub,2013-03-12 10:42:00,
2013-03-12 06:52:00,55.0,54.1,29.91,SE,135,2.0,7.0,97,0.03,,,0.04,meteohub,2013-03-12 10:52:00,
2013-03-12 07:02:00,55.0,54.1,29.91,South,180,3.0,6.0,97,0.04,,,0.05,meteohub,2013-03-12 11:02:00,
2013-03-12 07:12:00,55.0,54.1,29.91,SE,135,4.0,8.0,97,0.05,,,0.07,meteohub,2013-03-12 11:12:00,
2013-03-12 07:22:00,55.0,54.1,29.90,SE,135,3.0,7.0,97,0.07,,,0.09,meteohub,2013-03-12 11:22:00,
2013-03-12 07:32:00,55.0,54.1,29.89,SE,135,2.0,9.0,97,0.09,,,0.11,meteohub,2013-03-12 11:32:00,
2013-03-12 07:42:00,55.0,54.1,29.89,SE,135,4.0,10.0,97,0.11,,,0.14,meteohub,2013-03-12 11:42:00,
2013-03-12 07:52:00,55.0,54.1,29.89,SSE,157,1.0,8.0,97,0.11,,,0.15,meteohub,2013-03-12 11:52:00,
2013-03-12 08:02:00,55.0,54.1,29.88,SSE,157,2.0,7.0,97,0.12,,,0.17,meteohub,2013-03-12 12:02:00,
2013-03-12 08:12:00,55.0,54.1,29.88,South,180,4.0,9.0,97,0.10,,,0.17,meteohub,2013-03-12 12:12:00,
2013-03-12 08:22:00,55.0,54.1,29.87,SE,135,6.0,9.0,97,0.09,,,0.18,meteohub,2013-03-12 12:22:00,
2013-03-12 08:32:00,55.0,54.1,29.87,South,180,2.0,9.0,97,0.06,,,0.18,meteohub,2013-03-12 12:32:00,
2013-03-12 08:42:00,55.0,54.1,29.87,SSE,157,1.0,11.0,97,0.04,,,0.19,meteohub,2013-03-12 12:42:00,
2013-03-12 08:52:00,55.0,54.1,29.87,SE,135,3.0,9.0,97,0.04,,,0.20,meteohub,2013-03-12 12:52:00,
2013-03-12 09:02:00,55.9,55.0,29.86,South,180,4.0,9.0,97,0.03,,,0.20,meteohub,2013-03-12 13:02:00,
2013-03-12 09:12:00,55.9,55.0,29.85,SE,135,3.0,9.0,97,0.03,,,0.20,meteohub,2013-03-12 13:12:00,
2013-03-12 09:22:00,55.9,55.0,29.85,South,180,7.0,11.0,97,0.02,,,0.20,meteohub,2013-03-12 13:22:00,
2013-03-12 09:32:00,55.9,55.0,29.84,South,180,4.0,11.0,97,0.02,,,0.20,meteohub,2013-03-12 13:32:00,
2013-03-12 09:42:00,55.9,55.0,29.84,SE,135,4.0,14.0,97,0.01,,,0.20,meteohub,2013-03-12 13:42:00,
2013-03-12 09:52:00,55.9,55.0,29.84,South,180,1.0,11.0,97,0.00,,,0.20,meteohub,2013-03-12 13:52:00,
2013-03-12 10:02:00,55.9,55.0,29.83,SE,135,4.0,8.0,97,0.01,,,0.21,meteohub,2013-03-12 14:02:00,
2013-03-12 10:12:00,55.9,55.0,29.81,SE,135,1.0,10.0,97,0.03,,,0.23,meteohub,2013-03-12 14:12:00,
2013-03-12 10:22:00,55.9,55.0,29.81,West,270,2.0,11.0,97,0.05,,,0.25,meteohub,2013-03-12 14:22:00,
2013-03-12 10:32:00,57.0,56.1,29.85,NW,315,7.0,11.0,97,0.06,,,0.26,meteohub,2013-03-12 14:32:00,
2013-03-12 10:42:00,55.9,55.0,29.84,NW,315,3.0,8.0,97,0.36,,,0.56,meteohub,2013-03-12 14:42:00,
2013-03-12 10:52:00,55.9,55.0,29.85,NW,315,2.0,5.0,97,0.46,,,0.65,meteohub,2013-03-12 14:52:00,
2013-03-12 11:02:00,55.9,55.0,29.86,NW,315,4.0,5.0,97,0.49,,,0.71,meteohub,2013-03-12 15:02:00,
2013-03-12 11:12:00,55.0,54.1,29.85,NW,315,4.0,11.0,97,0.50,,,0.74,meteohub,2013-03-12 15:12:00,
2013-03-12 11:22:00,54.0,53.1,29.86,NW,315,6.0,12.0,97,0.52,,,0.77,meteohub,2013-03-12 15:22:00,
2013-03-12 11:32:00,52.0,51.1,29.86,North,0,9.0,16.0,97,0.53,,,0.79,meteohub,2013-03-12 15:32:00,
2013-03-12 11:42:00,51.1,50.2,29.87,NW,315,7.0,18.0,97,0.22,,,0.83,meteohub,2013-03-12 15:42:00,
2013-03-12 11:52:00,50.0,49.1,29.87,NW,315,7.0,18.0,97,0.19,,,0.85,meteohub,2013-03-12 15:52:00,
2013-03-12 12:02:00,48.9,48.0,29.86,NW,315,7.0,17.0,97,0.15,,,0.86,meteohub,2013-03-12 16:02:00,
2013-03-12 12:12:00,48.9,48.0,29.87,NW,315,5.0,16.0,97,0.12,,,0.87,meteohub,2013-03-12 16:12:00,
2013-03-12 12:22:00,48.9,48.0,29.87,North,0,6.0,14.0,97,0.10,,,0.87,meteohub,2013-03-12 16:22:00,
2013-03-12 12:32:00,50.0,49.1,29.87,North,0,6.0,13.0,97,0.08,,,0.87,meteohub,2013-03-12 16:32:00,
2013-03-12 12:43:00,51.1,50.2,29.87,North,0,7.0,13.0,97,0.04,,,0.87,meteohub,2013-03-12 16:43:00,
2013-03-12 12:52:00,51.1,49.6,29.87,NW,315,5.0,16.0,95,0.02,,,0.87,meteohub,2013-03-12 16:52:00,
2013-03-12 13:02:00,52.0,49.6,29.87,NW,315,10.0,16.0,92,0.01,,,0.87,meteohub,2013-03-12 17:02:00,
2013-03-12 13:12:00,53.1,49.3,29.87,NE,45,2.0,19.0,87,0.00,,,0.87,meteohub,2013-03-12 17:12:00,
2013-03-12 13:22:00,53.1,48.7,29.88,NW,315,5.0,19.0,85,0.00,,,0.87,meteohub,2013-03-12 17:22:00,
2013-03-12 13:32:00,54.0,49.6,29.89,West,270,6.0,17.0,85,0.00,,,0.87,meteohub,2013-03-12 17:32:00,
2013-03-12 13:42:00,54.0,48.9,29.89,NW,315,5.0,17.0,83,0.00,,,0.87,meteohub,2013-03-12 17:42:00,
2013-03-12 13:52:00,55.0,48.6,29.89,NW,315,9.0,16.0,79,0.00,,,0.87,meteohub,2013-03-12 17:52:00,
2013-03-12 14:02:00,55.9,49.8,29.89,NW,315,4.0,16.0,80,0.00,,,0.87,meteohub,2013-03-12 18:02:00,
2013-03-12 14:12:00,55.9,47.1,29.89,NW,315,6.0,16.0,72,0.00,,,0.87,meteohub,2013-03-12 18:12:00,
2013-03-12 14:22:00,55.9,46.8,29.90,NW,315,4.0,16.0,71,0.00,,,0.87,meteohub,2013-03-12 18:22:00,
2013-03-12 14:32:00,55.9,46.2,29.89,NW,315,6.0,16.0,70,0.00,,,0.87,meteohub,2013-03-12 18:32:00,
2013-03-12 14:42:00,55.9,45.5,29.89,NW,315,11.0,14.0,68,0.00,,,0.87,meteohub,2013-03-12 18:42:00,
2013-03-12 14:52:00,55.9,45.1,29.89,NW,315,8.0,14.0,67,0.00,,,0.87,meteohub,2013-03-12 18:52:00,
2013-03-12 15:02:00,55.9,45.1,29.89,NW,315,6.0,17.0,67,0.00,,,0.87,meteohub,2013-03-12 19:02:00,
2013-03-12 15:12:00,55.0,45.1,29.89,NW,315,5.0,14.0,69,0.00,,,0.87,meteohub,2013-03-12 19:12:00,
2013-03-12 15:22:00,55.0,44.2,29.89,NW,315,8.0,11.0,67,0.00,,,0.87,meteohub,2013-03-12 19:22:00,
2013-03-12 15:32:00,55.9,44.4,29.89,North,0,6.0,12.0,65,0.00,,,0.87,meteohub,2013-03-12 19:32:00,
2013-03-12 15:42:00,55.9,43.9,29.89,NW,315,2.0,17.0,64,0.00,,,0.87,meteohub,2013-03-12 19:42:00,
2013-03-12 15:52:00,55.9,43.5,29.90,NW,315,6.0,16.0,63,0.00,,,0.87,meteohub,2013-03-12 19:52:00,
2013-03-12 16:02:00,55.9,43.5,29.90,NW,315,9.0,16.0,63,0.00,,,0.87,meteohub,2013-03-12 20:02:00,
2013-03-12 16:12:00,55.0,42.6,29.90,NNW,337,6.0,15.0,63,0.00,,,0.87,meteohub,2013-03-12 20:12:00,
2013-03-12 16:22:00,55.0,42.6,29.91,NW,315,4.0,16.0,63,0.00,,,0.87,meteohub,2013-03-12 20:22:00,
2013-03-12 16:32:00,55.0,42.3,29.91,NW,315,6.0,15.0,62,0.00,,,0.87,meteohub,2013-03-12 20:32:00,
2013-03-12 16:42:00,54.0,41.2,29.92,NW,315,4.0,19.0,62,0.00,,,0.87,meteohub,2013-03-12 20:42:00,
2013-03-12 16:52:00,54.0,40.8,29.92,North,0,9.0,14.0,61,0.00,,,0.87,meteohub,2013-03-12 20:52:00,
2013-03-12 17:02:00,54.0,39.0,29.93,NW,315,6.0,14.0,57,0.00,,,0.87,meteohub,2013-03-12 21:02:00,
2013-03-12 17:12:00,54.0,39.0,29.93,NW,315,9.0,17.0,57,0.00,,,0.87,meteohub,2013-03-12 21:12:00,
2013-03-12 17:22:00,54.0,38.7,29.93,NNW,337,16.0,16.0,56,0.00,,,0.87,meteohub,2013-03-12 21:22:00,
2013-03-12 17:32:00,53.1,37.4,29.93,NW,315,3.0,18.0,55,0.00,,,0.87,meteohub,2013-03-12 21:32:00,
2013-03-12 17:42:00,53.1,37.4,29.93,North,0,6.0,16.0,55,0.00,,,0.87,meteohub,2013-03-12 21:42:00,
2013-03-12 17:52:00,53.1,37.8,29.93,NW,315,6.0,14.0,56,0.00,,,0.87,meteohub,2013-03-12 21:52:00,
2013-03-12 18:02:00,53.1,36.3,29.94,NNW,337,8.0,16.0,53,0.00,,,0.87,meteohub,2013-03-12 22:02:00,
2013-03-12 18:12:00,52.0,36.9,29.94,NW,315,6.0,17.0,56,0.00,,,0.87,meteohub,2013-03-12 22:12:00,
2013-03-12 18:22:00,51.1,36.3,29.94,NW,315,11.0,16.0,57,0.00,,,0.87,meteohub,2013-03-12 22:22:00,
2013-03-12 18:32:00,51.1,36.3,29.95,NW,315,2.0,16.0,57,0.00,,,0.87,meteohub,2013-03-12 22:32:00,
2013-03-12 18:42:00,50.0,35.8,29.95,NNW,337,5.0,16.0,58,0.00,,,0.87,meteohub,2013-03-12 22:42:00,
2013-03-12 18:52:00,48.9,35.2,29.95,NW,315,5.0,16.0,59,0.00,,,0.87,meteohub,2013-03-12 22:52:00,
2013-03-12 19:02:00,48.0,34.9,29.95,North,0,10.0,16.0,60,0.00,,,0.87,meteohub,2013-03-12 23:02:00,
2013-03-12 19:12:00,46.9,34.5,29.95,NW,315,1.0,16.0,62,0.00,,,0.87,meteohub,2013-03-12 23:12:00,
2013-03-12 19:22:00,46.9,35.1,29.96,NW,315,4.0,16.0,63,0.00,,,0.87,meteohub,2013-03-12 23:22:00,
2013-03-12 19:32:00,46.0,34.5,29.96,North,0,1.0,16.0,64,0.00,,,0.87,meteohub,2013-03-12 23:32:00,
2013-03-12 19:42:00,46.0,34.5,29.96,NNE,22,3.0,12.0,64,0.00,,,0.87,meteohub,2013-03-12 23:42:00,
2013-03-12 19:52:00,46.0,34.5,29.96,NW,315,14.0,14.0,64,0.00,,,0.87,meteohub,2013-03-12 23:52:00,
2013-03-12 20:02:00,45.0,33.1,29.97,WNW,292,7.0,19.0,63,0.00,,,0.87,meteohub,2013-03-13 00:02:00,
2013-03-12 20:12:00,45.0,33.1,29.97,NW,315,5.0,14.0,63,0.00,,,0.87,meteohub,2013-03-13 00:12:00,
2013-03-12 20:22:00,45.0,33.1,29.98,NW,315,11.0,14.0,63,0.00,,,0.87,meteohub,2013-03-13 00:22:00,
2013-03-12 20:32:00,44.1,31.8,29.98,NW,315,3.0,16.0,62,0.00,,,0.87,meteohub,2013-03-13 00:32:00,
2013-03-12 20:42:00,44.1,32.4,29.98,NW,315,7.0,11.0,63,0.00,,,0.87,meteohub,2013-03-13 00:42:00,
2013-03-12 20:52:00,44.1,32.7,29.99,North,0,2.0,16.0,64,0.00,,,0.87,meteohub,2013-03-13 00:52:00,
2013-03-12 21:02:00,44.1,33.1,29.99,NW,315,7.0,11.0,65,0.00,,,0.87,meteohub,2013-03-13 01:02:00,
2013-03-12 21:12:00,44.1,33.4,29.99,NW,315,6.0,11.0,66,0.00,,,0.87,meteohub,2013-03-13 01:12:00,
2013-03-12 21:22:00,43.0,32.4,29.99,NNW,337,6.0,9.0,66,0.00,,,0.87,meteohub,2013-03-13 01:22:00,
2013-03-12 21:32:00,43.0,32.7,30.00,NW,315,4.0,9.0,67,0.00,,,0.87,meteohub,2013-03-13 01:32:00,
2013-03-12 21:42:00,43.0,33.1,30.00,NW,315,2.0,8.0,68,0.00,,,0.87,meteohub,2013-03-13 01:42:00,
2013-03-12 21:52:00,43.0,32.0,30.00,NW,315,11.0,14.0,65,0.00,,,0.87,meteohub,2013-03-13 01:52:00,
2013-03-12 22:02:00,43.0,31.3,30.01,NW,315,7.0,14.0,63,0.00,,,0.87,meteohub,2013-03-13 02:02:00,
2013-03-12 22:12:00,43.0,31.6,30.01,NW,315,5.0,12.0,64,0.00,,,0.87,meteohub,2013-03-13 02:12:00,
2013-03-12 22:22:00,43.0,31.6,30.01,North,0,4.0,13.0,64,0.00,,,0.87,meteohub,2013-03-13 02:22:00,
2013-03-12 22:32:00,42.1,31.1,30.01,NW,315,5.0,11.0,65,0.00,,,0.87,meteohub,2013-03-13 02:32:00,
2013-03-12 22:42:00,42.1,31.1,30.01,North,0,3.0,13.0,65,0.00,,,0.87,meteohub,2013-03-13 02:42:00,
2013-03-12 22:52:00,42.1,31.5,30.01,NNE,22,3.0,9.0,66,0.00,,,0.87,meteohub,2013-03-13 02:52:00,
2013-03-12 23:02:00,42.1,32.0,30.01,NW,315,2.0,9.0,67,0.00,,,0.87,meteohub,2013-03-13 03:02:00,
2013-03-12 23:12:00,42.1,32.4,30.02,NW,315,2.0,9.0,68,0.00,,,0.87,meteohub,2013-03-13 03:12:00,
2013-03-12 23:22:00,41.0,31.3,30.02,West,270,6.0,6.0,68,0.00,,,0.87,meteohub,2013-03-13 03:22:00,
2013-03-12 23:32:00,41.0,31.3,30.02,NW,315,2.0,7.0,68,0.00,,,0.87,meteohub,2013-03-13 03:32:00,
2013-03-12 23:42:00,41.0,31.6,30.02,North,0,2.0,6.0,69,0.00,,,0.87,meteohub,2013-03-13 03:42:00,
2013-03-12 23:52:00,41.0,31.3,30.02,NW,315,1.0,5.0,68,0.00,,,0.87,meteohub,2013-03-13 03:52:00,